Time;durP1;ratioP1;P1;durP2;ratioP2;P2;SDS_P1;SDS_P2;PMS_P1;PMS_P2;Temp;Humidity;BMP_temperature;BMP_pressure;BME280_temperature;BME280_humidity;BME280_pressure;Samples;Min_cycle;Max_cycle;Signal;HPM_P1;HPM_P2
2022/07/08 00:01:23;;;;;;;13.17;4.30;;;15.60;1.00;;;;;;6163420;23;20423;-79
2022/07/08 00:03:50;;;;;;;9.40;4.20;;;15.60;1.00;;;;;;6162521;23;20419;-79
2022/07/08 00:06:19;;;;;;;8.77;3.73;;;15.60;1.00;;;;;;6163214;23;20535;-78
2022/07/08 00:08:46;;;;;;;10.10;4.47;;;15.60;1.00;;;;;;6163315;23;20839;-78
2022/07/08 00:11:14;;;;;;;12.53;4.67;;;15.50;1.00;;;;;;6163925;23;22148;-77
2022/07/08 00:13:41;;;;;;;12.70;5.33;;;15.50;1.00;;;;;;6160802;23;20433;-78
2022/07/08 00:16:08;;;;;;;9.20;4.60;;;15.50;1.00;;;;;;6161888;23;20410;-78
2022/07/08 00:18:36;;;;;;;7.77;3.73;;;15.50;1.00;;;;;;6169468;23;20799;-78
2022/07/08 00:21:05;;;;;;;15.00;4.70;;;15.50;1.00;;;;;;6167280;23;20427;-78
2022/07/08 00:23:35;;;;;;;12.07;3.90;;;15.40;1.00;;;;;;6169051;23;20428;-78
2022/07/08 00:26:01;;;;;;;12.70;3.63;;;15.40;1.00;;;;;;6152616;23;20510;-79
2022/07/08 00:28:36;;;;;;;10.90;4.10;;;15.30;1.00;;;;;;6166387;23;20415;-78
2022/07/08 00:31:03;;;;;;;9.90;4.03;;;15.30;1.00;;;;;;6160463;23;20428;-79
2022/07/08 00:33:35;;;;;;;10.93;5.03;;;15.30;1.00;;;;;;6166576;23;20397;-80
2022/07/08 00:36:02;;;;;;;10.47;4.40;;;15.30;1.00;;;;;;6164076;23;20437;-80
2022/07/08 00:38:30;;;;;;;10.97;3.40;;;15.20;1.00;;;;;;6159969;23;21097;-80
2022/07/08 00:41:00;;;;;;;13.10;4.70;;;15.20;1.00;;;;;;6168903;23;20431;-79
2022/07/08 00:43:35;;;;;;;6.50;4.23;;;15.20;1.00;;;;;;6154100;23;20473;-76
2022/07/08 00:46:03;;;;;;;11.43;4.30;;;15.20;1.00;;;;;;6161490;23;20448;-77
2022/07/08 00:48:35;;;;;;;13.80;4.60;;;15.20;1.00;;;;;;6166759;23;20458;-79
2022/07/08 00:51:04;;;;;;;8.20;4.10;;;15.20;1.00;;;;;;6164692;23;20426;-80
2022/07/08 00:53:36;;;;;;;7.70;4.33;;;15.20;1.00;;;;;;6169497;23;20441;-79
2022/07/08 00:56:04;;;;;;;9.80;4.00;;;15.20;1.00;;;;;;6155478;23;20435;-79
2022/07/08 00:58:38;;;;;;;12.23;4.63;;;15.20;1.00;;;;;;6154341;23;20425;-80
2022/07/08 01:01:05;;;;;;;10.53;4.20;;;15.20;1.00;;;;;;6161285;23;20402;-78
2022/07/08 01:03:37;;;;;;;11.07;5.13;;;15.10;1.00;;;;;;6156305;23;20564;-78
2022/07/08 01:06:04;;;;;;;11.13;4.60;;;15.10;1.00;;;;;;6163380;23;20977;-78
2022/07/08 01:08:34;;;;;;;10.20;4.73;;;15.10;1.00;;;;;;6171767;23;20423;-79
2022/07/08 01:11:02;;;;;;;10.13;4.60;;;15.10;1.00;;;;;;6169740;23;20474;-80
2022/07/08 01:13:36;;;;;;;8.93;4.30;;;15.10;1.00;;;;;;6168880;23;20509;-79
2022/07/08 01:16:04;;;;;;;14.00;5.53;;;15.10;1.00;;;;;;6165981;23;20410;-79
2022/07/08 01:18:35;;;;;;;9.73;4.80;;;15.10;1.00;;;;;;6154310;23;20502;-80
2022/07/08 01:21:03;;;;;;;14.50;6.27;;;15.10;1.00;;;;;;6139273;23;20709;-78
2022/07/08 01:23:38;;;;;;;13.37;5.73;;;15.10;1.00;;;;;;6165757;23;20387;-79
2022/07/08 01:26:13;;;;;;;9.20;4.80;;;15.10;1.00;;;;;;6154809;23;20428;-78
2022/07/08 01:28:45;;;;;;;13.40;4.70;;;15.10;1.00;;;;;;6170320;23;20466;-80
2022/07/08 01:31:14;;;;;;;11.60;5.10;;;15.00;1.00;;;;;;6164943;23;20394;-79
2022/07/08 01:33:41;;;;;;;10.93;5.70;;;15.00;1.00;;;;;;6167059;23;20965;-78
2022/07/08 01:36:14;;;;;;;11.17;5.13;;;15.00;1.00;;;;;;6157678;23;20438;-80
2022/07/08 01:38:41;;;;;;;12.53;5.40;;;15.00;1.00;;;;;;6163980;23;20414;-77
2022/07/08 01:41:08;;;;;;;14.00;5.23;;;15.00;1.00;;;;;;6168670;23;20433;-77
2022/07/08 01:43:36;;;;;;;17.93;5.50;;;15.00;1.00;;;;;;6169979;23;20522;-80
2022/07/08 01:46:03;;;;;;;14.47;4.83;;;15.10;1.00;;;;;;6161907;23;20786;-79
2022/07/08 01:48:42;;;;;;;9.13;4.40;;;15.10;1.00;;;;;;6135504;23;20444;-79
2022/07/08 01:51:15;;;;;;;10.37;4.80;;;15.20;1.00;;;;;;6123444;23;20502;-80
2022/07/08 01:53:42;;;;;;;13.53;5.10;;;15.30;1.00;;;;;;6140494;23;20827;-80
2022/07/08 01:56:13;;;;;;;11.40;5.13;;;15.30;1.00;;;;;;6139234;23;21011;-80
2022/07/08 01:58:40;;;;;;;15.00;4.60;;;15.40;1.00;;;;;;6135240;23;20432;-77
2022/07/08 02:01:07;;;;;;;13.33;5.50;;;15.40;1.00;;;;;;6134176;23;20427;-78
2022/07/08 02:03:35;;;;;;;14.10;5.60;;;15.50;1.00;;;;;;6138416;23;20383;-80
2022/07/08 02:06:02;;;;;;;16.70;5.60;;;15.50;1.00;;;;;;6129989;23;20454;-79
2022/07/08 02:08:34;;;;;;;15.87;5.40;;;15.40;1.00;;;;;;6139152;23;20426;-79
2022/07/08 02:13:45;;;;;;;15.70;5.63;;;15.40;1.00;;;;;;6132569;23;20436;-79
2022/07/08 02:16:15;;;;;;;14.40;4.70;;;15.30;1.00;;;;;;6136767;23;20431;-80
2022/07/08 02:18:41;;;;;;;11.70;5.40;;;15.30;1.00;;;;;;6138861;23;20450;-80
2022/07/08 02:21:10;;;;;;;12.00;5.13;;;15.40;1.00;;;;;;6130900;23;20424;-80
2022/07/08 02:23:41;;;;;;;12.80;5.67;;;15.40;1.00;;;;;;6138488;23;20952;-80
2022/07/08 02:26:08;;;;;;;17.77;5.50;;;15.30;1.00;;;;;;6124208;23;20447;-80
2022/07/08 02:28:37;;;;;;;16.30;5.30;;;15.30;1.00;;;;;;6108823;23;20427;-79
2022/07/08 02:31:04;;;;;;;16.47;5.67;;;15.30;1.00;;;;;;6130181;23;20446;-79
2022/07/08 02:33:35;;;;;;;10.90;4.90;;;15.20;1.00;;;;;;6139882;23;20407;-79
2022/07/08 02:36:02;;;;;;;13.40;6.00;;;15.20;1.00;;;;;;6135022;23;21199;-78
2022/07/08 02:38:31;;;;;;;14.47;5.40;;;15.20;1.00;;;;;;6137450;23;20517;-78
2022/07/08 02:41:01;;;;;;;9.33;5.30;;;15.20;1.00;;;;;;6136798;23;20868;-77
2022/07/08 02:43:38;;;;;;;8.13;4.93;;;15.20;1.00;;;;;;6138749;23;20506;-79
2022/07/08 02:46:05;;;;;;;16.03;5.47;;;15.20;1.00;;;;;;6138153;23;20447;-79
2022/07/08 02:48:35;;;;;;;14.00;5.10;;;15.30;1.00;;;;;;6140997;23;20431;-79
2022/07/08 02:51:05;;;;;;;13.67;5.80;;;15.30;1.00;;;;;;6137825;23;20735;-77
2022/07/08 02:53:35;;;;;;;14.80;5.73;;;15.40;1.00;;;;;;6139135;23;20436;-76
2022/07/08 02:56:03;;;;;;;11.90;5.73;;;15.40;1.00;;;;;;6110609;23;20400;-78
2022/07/08 02:58:36;;;;;;;16.87;5.60;;;15.50;1.00;;;;;;6137762;23;20453;-80
2022/07/08 03:01:03;;;;;;;13.53;6.20;;;15.40;1.00;;;;;;6135721;23;20938;-78
2022/07/08 03:03:33;;;;;;;8.77;4.60;;;15.40;1.00;;;;;;6135635;23;20455;-77
2022/07/08 03:06:05;;;;;;;10.23;5.53;;;15.40;1.00;;;;;;6135640;23;20416;-78
2022/07/08 03:08:35;;;;;;;13.43;5.73;;;15.50;1.00;;;;;;6135108;23;20396;-76
2022/07/08 03:11:05;;;;;;;14.00;6.50;;;15.40;1.00;;;;;;6123298;23;20419;-77
2022/07/08 03:13:36;;;;;;;10.77;4.93;;;15.40;1.00;;;;;;6138553;23;20399;-78
2022/07/08 03:16:04;;;;;;;9.73;4.33;;;15.40;1.00;;;;;;6136441;23;20440;-79
2022/07/08 03:18:38;;;;;;;13.77;6.87;;;15.40;1.00;;;;;;6140057;23;20384;-79
2022/07/08 03:21:07;;;;;;;10.00;5.10;;;15.50;1.00;;;;;;6110389;23;20531;-78
2022/07/08 03:23:39;;;;;;;10.37;4.30;;;15.40;1.00;;;;;;6126903;23;20452;-78
2022/07/08 03:26:08;;;;;;;10.57;4.43;;;15.40;1.00;;;;;;6138968;23;20440;-80
2022/07/08 03:28:35;;;;;;;10.73;5.53;;;15.40;1.00;;;;;;6124137;23;20415;-78
2022/07/08 03:31:02;;;;;;;13.47;5.40;;;15.50;1.00;;;;;;6128453;23;20487;-78
2022/07/08 03:33:36;;;;;;;8.50;4.60;;;15.50;1.00;;;;;;6139698;23;20519;-80
2022/07/08 03:36:03;;;;;;;9.33;4.80;;;15.40;1.00;;;;;;6136948;23;20806;-80
2022/07/08 03:38:35;;;;;;;10.00;4.90;;;15.50;1.00;;;;;;6141005;23;20439;-78
2022/07/08 03:41:20;;;;;;;13.77;5.50;;;15.50;1.00;;;;;;6139284;23;20424;-78
2022/07/08 03:43:53;;;;;;;12.03;4.70;;;15.60;1.00;;;;;;6141444;23;20420;-80
2022/07/08 03:46:21;;;;;;;9.80;5.13;;;15.70;1.00;;;;;;6137087;23;20494;-80
2022/07/08 03:48:54;;;;;;;13.83;5.03;;;15.70;1.00;;;;;;6163306;23;20938;-79
2022/07/08 03:51:23;;;;;;;11.13;5.30;;;15.80;1.00;;;;;;6172032;23;20455;-79
2022/07/08 03:53:52;;;;;;;11.63;5.10;;;15.80;1.00;;;;;;6167817;23;20525;-79
2022/07/08 03:56:20;;;;;;;11.47;4.63;;;15.90;1.00;;;;;;6165957;23;20387;-77
2022/07/08 03:58:54;;;;;;;12.90;5.90;;;16.00;1.00;;;;;;6168419;23;20391;-78
2022/07/08 04:01:21;;;;;;;13.30;4.87;;;16.00;1.00;;;;;;6167658;23;20394;-79
2022/07/08 04:03:47;;;;;;;10.83;4.70;;;16.00;1.00;;;;;;6152082;23;20485;-79
2022/07/08 04:06:16;;;;;;;10.37;4.50;;;16.00;1.00;;;;;;6164049;23;20402;-80
2022/07/08 04:08:43;;;;;;;10.17;4.80;;;16.00;1.00;;;;;;6167233;23;20538;-79
2022/07/08 04:11:15;;;;;;;10.10;5.03;;;16.00;1.00;;;;;;6168427;23;20425;-80
2022/07/08 04:13:42;;;;;;;10.40;5.27;;;16.00;1.00;;;;;;6167633;23;20918;-80
2022/07/08 04:16:15;;;;;;;12.40;4.67;;;16.00;1.00;;;;;;6167019;23;20553;-78
2022/07/08 04:18:42;;;;;;;11.57;5.20;;;16.00;1.00;;;;;;6166579;23;20592;-79
2022/07/08 04:21:15;;;;;;;11.03;5.03;;;15.90;1.00;;;;;;6167426;23;20527;-79
2022/07/08 04:23:43;;;;;;;9.43;4.70;;;15.90;1.00;;;;;;6162491;23;20546;-79
2022/07/08 04:26:15;;;;;;;12.20;5.37;;;15.80;1.00;;;;;;6156130;23;20410;-77
2022/07/08 04:28:42;;;;;;;13.10;4.90;;;15.90;1.00;;;;;;6166908;23;20445;-78
2022/07/08 04:31:15;;;;;;;11.30;5.53;;;16.00;1.00;;;;;;6165388;23;20435;-78
2022/07/08 04:33:42;;;;;;;9.00;4.60;;;16.10;1.00;;;;;;6171351;23;20397;-79
2022/07/08 04:36:10;;;;;;;15.67;4.83;;;16.20;1.00;;;;;;6166285;23;20525;-78
2022/07/08 04:38:38;;;;;;;10.73;5.87;;;16.30;1.00;;;;;;6169656;23;20478;-79
2022/07/08 04:41:05;;;;;;;7.37;4.73;;;16.30;1.00;;;;;;6166862;23;20402;-79
2022/07/08 04:43:35;;;;;;;8.00;4.47;;;16.30;1.00;;;;;;6170350;23;20458;-78
2022/07/08 04:46:02;;;;;;;8.70;4.63;;;16.30;1.00;;;;;;6164204;23;20423;-79
2022/07/08 04:48:35;;;;;;;10.70;5.00;;;16.40;1.00;;;;;;6167905;23;20414;-78
2022/07/08 04:51:02;;;;;;;7.13;3.87;;;16.40;1.00;;;;;;6166786;23;20832;-78
2022/07/08 04:53:30;;;;;;;8.07;4.20;;;16.50;1.00;;;;;;6155763;23;20894;-79
2022/07/08 04:56:01;;;;;;;13.83;5.03;;;16.50;1.00;;;;;;6164717;23;20522;-79
2022/07/08 04:58:28;;;;;;;16.53;5.00;;;16.50;1.00;;;;;;6152757;23;20987;-77
2022/07/08 05:00:56;;;;;;;9.73;4.20;;;16.60;1.00;;;;;;6167477;23;20394;-79
2022/07/08 05:03:23;;;;;;;9.20;4.57;;;16.70;1.00;;;;;;6163127;23;20422;-76
2022/07/08 05:05:55;;;;;;;9.13;4.77;;;16.70;1.00;;;;;;6152896;23;20513;-78
2022/07/08 05:08:22;;;;;;;7.70;4.20;;;16.70;1.00;;;;;;6163333;23;20799;-79
2022/07/08 05:10:52;;;;;;;7.50;4.50;;;16.70;1.00;;;;;;6140516;23;20509;-80
2022/07/08 05:13:19;;;;;;;6.27;4.10;;;16.80;1.00;;;;;;6164528;23;20414;-80
2022/07/08 05:15:46;;;;;;;8.50;4.90;;;16.90;1.00;;;;;;6170438;23;20450;-76
2022/07/08 05:18:16;;;;;;;7.90;3.47;;;16.90;1.00;;;;;;6166323;23;20409;-79
2022/07/08 05:20:42;;;;;;;6.00;4.60;;;16.80;1.00;;;;;;6169935;23;20807;-79
2022/07/08 05:23:15;;;;;;;11.60;4.33;;;16.90;1.00;;;;;;6169047;23;20378;-78
2022/07/08 05:25:44;;;;;;;7.50;4.07;;;16.80;1.00;;;;;;6166466;23;20568;-77
2022/07/08 05:28:16;;;;;;;9.63;4.20;;;16.80;1.00;;;;;;6166573;23;20446;-78
2022/07/08 05:30:42;;;;;;;11.23;4.53;;;16.80;1.00;;;;;;6169701;23;20466;-77
2022/07/08 05:33:14;;;;;;;8.03;4.20;;;16.80;1.00;;;;;;6153285;23;20406;-79
2022/07/08 05:35:42;;;;;;;9.47;3.87;;;16.80;1.00;;;;;;6166963;23;20410;-76
2022/07/08 05:38:20;;;;;;;7.87;4.00;;;16.90;1.00;;;;;;6169137;23;20510;-78
2022/07/08 05:40:47;;;;;;;7.27;3.60;;;16.90;1.00;;;;;;6166587;23;20425;-77
2022/07/08 05:43:15;;;;;;;12.43;4.63;;;17.00;1.00;;;;;;6166087;23;20443;-79
2022/07/08 05:45:42;;;;;;;6.20;3.57;;;17.00;1.00;;;;;;6171185;23;20407;-79
2022/07/08 05:48:16;;;;;;;8.43;4.70;;;16.90;1.00;;;;;;6168447;23;20391;-77
2022/07/08 05:50:42;;;;;;;12.20;4.57;;;17.00;1.00;;;;;;6170226;23;20418;-80
2022/07/08 05:53:17;;;;;;;9.30;3.87;;;17.00;1.00;;;;;;6167851;23;20513;-77
2022/07/08 05:55:48;;;;;;;9.07;4.10;;;16.80;1.00;;;;;;6168792;23;20488;-76
2022/07/08 05:58:18;;;;;;;6.27;4.43;;;16.80;1.00;;;;;;6158816;23;20414;-78
2022/07/08 06:00:45;;;;;;;9.27;3.93;;;16.70;1.00;;;;;;6166645;23;20426;-77
2022/07/08 06:03:17;;;;;;;7.23;4.17;;;16.70;1.00;;;;;;6150303;23;20390;-77
2022/07/08 06:05:48;;;;;;;5.80;4.20;;;16.80;1.00;;;;;;6162252;23;20458;-79
2022/07/08 06:08:16;;;;;;;9.90;4.00;;;16.80;1.00;;;;;;6158649;23;21575;-78
2022/07/08 06:10:46;;;;;;;6.63;3.33;;;16.80;1.00;;;;;;6153150;23;20466;-80
2022/07/08 06:13:14;;;;;;;8.90;3.97;;;16.80;1.00;;;;;;6164915;23;20908;-80
2022/07/08 06:15:47;;;;;;;5.57;3.93;;;16.70;1.00;;;;;;6163326;23;20402;-80
2022/07/08 06:18:27;;;;;;;6.67;3.40;;;16.70;1.00;;;;;;6122400;23;20406;-79
2022/07/08 06:20:54;;;;;;;6.00;3.97;;;16.60;1.00;;;;;;6136924;23;20823;-79
2022/07/08 06:23:22;;;;;;;7.10;3.80;;;16.60;1.00;;;;;;6168283;23;20450;-76
2022/07/08 06:26:00;;;;;;;6.03;3.37;;;16.60;1.00;;;;;;6169913;23;20799;-77
2022/07/08 06:28:38;;;;;;;11.43;5.40;;;16.70;1.00;;;;;;6139982;23;20478;-82
2022/07/08 06:31:07;;;;;;;9.47;3.90;;;16.70;1.00;;;;;;6167294;23;20908;-80
2022/07/08 06:33:36;;;;;;;8.93;4.03;;;16.60;1.00;;;;;;6155449;23;20395;-79
2022/07/08 06:36:03;;;;;;;6.93;3.27;;;16.60;1.00;;;;;;6166482;23;20426;-80
2022/07/08 06:38:38;;;;;;;8.57;4.37;;;16.60;1.00;;;;;;6164992;23;20411;-79
2022/07/08 06:41:05;;;;;;;6.80;3.70;;;16.60;1.00;;;;;;6166311;23;20454;-81
2022/07/08 06:43:36;;;;;;;7.93;3.90;;;16.50;1.00;;;;;;6170128;23;20577;-78
2022/07/08 06:46:03;;;;;;;8.80;4.20;;;16.50;1.00;;;;;;6166154;23;21135;-79
2022/07/08 06:48:34;;;;;;;6.03;3.40;;;16.50;1.00;;;;;;6168782;23;20411;-81
2022/07/08 06:51:01;;;;;;;6.43;4.10;;;16.40;1.00;;;;;;6154821;23;20923;-78
2022/07/08 06:56:17;;;;;;;7.23;4.50;;;16.40;1.00;;;;;;6167687;23;20425;-81
2022/07/08 06:58:46;;;;;;;9.10;4.23;;;16.50;1.00;;;;;;6168438;23;20458;-79
2022/07/08 07:01:23;;;;;;;8.47;4.13;;;16.60;1.00;;;;;;6167688;23;20405;-79
2022/07/08 07:03:52;;;;;;;8.97;4.20;;;16.70;1.00;;;;;;6155871;23;20430;-78
2022/07/08 07:06:21;;;;;;;8.40;4.07;;;16.70;1.00;;;;;;6151656;23;20418;-79
2022/07/08 07:08:50;;;;;;;7.67;3.47;;;16.70;1.00;;;;;;6165556;23;20493;-79
2022/07/08 07:11:16;;;;;;;6.00;4.20;;;16.70;1.00;;;;;;6164785;23;20496;-81
2022/07/08 07:13:43;;;;;;;9.00;4.67;;;16.60;1.00;;;;;;6167963;23;20565;-78
2022/07/08 07:16:13;;;;;;;8.90;4.53;;;16.60;1.00;;;;;;6167180;23;20517;-79
2022/07/08 07:18:40;;;;;;;6.63;4.00;;;16.60;1.00;;;;;;6149843;23;20902;-78
2022/07/08 07:21:07;;;;;;;10.37;5.70;;;16.70;1.00;;;;;;6168556;23;20892;-79
2022/07/08 07:23:36;;;;;;;8.03;3.80;;;16.50;1.00;;;;;;6172257;23;20374;-80
2022/07/08 07:26:05;;;;;;;12.00;5.20;;;16.40;1.00;;;;;;6156044;23;20493;-79
2022/07/08 07:28:36;;;;;;;8.60;4.47;;;16.40;1.00;;;;;;6166967;23;20511;-78
2022/07/08 07:31:03;;;;;;;9.47;4.27;;;16.40;1.00;;;;;;6168180;23;20387;-79
2022/07/08 07:33:37;;;;;;;14.00;4.40;;;16.40;1.00;;;;;;6169379;23;20431;-79
2022/07/08 07:36:05;;;;;;;9.00;4.73;;;16.40;1.00;;;;;;6153817;23;20441;-79
2022/07/08 07:38:42;;;;;;;5.53;3.43;;;16.40;1.00;;;;;;6163574;23;20406;-78
2022/07/08 07:41:15;;;;;;;5.40;3.30;;;16.40;1.00;;;;;;6160233;23;20883;-79
2022/07/08 07:43:42;;;;;;;13.67;4.47;;;16.40;1.00;;;;;;6156642;23;20453;-79
2022/07/08 07:46:09;;;;;;;11.43;3.83;;;16.40;1.00;;;;;;6130132;23;20442;-76
2022/07/08 07:48:36;;;;;;;8.57;4.10;;;16.40;1.00;;;;;;6146942;23;20404;-78
2022/07/08 07:51:03;;;;;;;9.50;3.90;;;16.40;1.00;;;;;;6137205;23;21276;-77
2022/07/08 07:53:35;;;;;;;10.50;4.50;;;16.40;1.00;;;;;;6131557;23;20830;-78
2022/07/08 07:56:02;;;;;;;10.53;5.30;;;16.50;1.00;;;;;;6122095;23;20440;-77
2022/07/08 07:58:38;;;;;;;13.77;4.40;;;16.60;1.00;;;;;;6137134;23;20396;-76
2022/07/08 08:01:05;;;;;;;10.43;4.23;;;16.70;1.00;;;;;;6124320;23;20462;-77
2022/07/08 08:03:36;;;;;;;8.20;4.30;;;16.80;1.00;;;;;;6140998;23;20416;-79
2022/07/08 08:06:05;;;;;;;9.27;3.97;;;16.90;1.00;;;;;;6138368;23;20458;-77
2022/07/08 08:08:37;;;;;;;8.20;3.30;;;17.00;1.00;;;;;;6138057;23;20425;-81
2022/07/08 08:11:05;;;;;;;6.00;3.30;;;17.10;1.00;;;;;;6140081;23;20449;-79
2022/07/08 08:13:34;;;;;;;14.30;3.30;;;17.10;1.00;;;;;;6124733;23;20435;-78
2022/07/08 08:16:01;;;;;;;8.67;3.63;;;17.10;1.00;;;;;;6133544;23;20431;-79
2022/07/08 08:18:28;;;;;;;11.77;3.70;;;17.10;1.00;;;;;;6136901;23;20494;-78
2022/07/08 08:20:56;;;;;;;13.50;4.27;;;17.10;1.00;;;;;;6110151;23;20439;-79
2022/07/08 08:23:26;;;;;;;9.00;4.00;;;17.20;1.00;;;;;;6133120;23;20732;-78
2022/07/08 08:25:57;;;;;;;10.70;4.10;;;17.20;1.00;;;;;;6124778;23;20435;-79
2022/07/08 08:28:24;;;;;;;6.80;3.10;;;17.30;1.00;;;;;;6121209;23;21250;-77
2022/07/08 08:31:03;;;;;;;9.03;3.07;;;17.40;1.00;;;;;;6134102;23;20448;-77
2022/07/08 08:33:36;;;;;;;8.03;3.80;;;17.50;1.00;;;;;;6137949;23;20546;-77
2022/07/08 08:36:03;;;;;;;14.70;3.90;;;17.50;1.00;;;;;;6135008;23;20427;-78
2022/07/08 08:39:02;;;;;;;8.03;3.27;;;17.50;1.00;;;;;;6137620;23;20710;-81
2022/07/08 08:41:35;;;;;;;6.60;3.00;;;17.50;1.00;;;;;;6073414;23;20439;-75
2022/07/08 08:44:02;;;;;;;8.30;4.10;;;17.60;1.00;;;;;;6123199;23;20443;-76
2022/07/08 08:46:36;;;;;;;4.90;2.80;;;17.70;1.00;;;;;;6135642;23;20466;-78
2022/07/08 08:49:07;;;;;;;5.43;2.47;;;17.90;1.00;;;;;;6137724;23;21265;-79
2022/07/08 08:51:38;;;;;;;8.90;3.10;;;18.00;1.00;;;;;;6130922;23;20446;-79
2022/07/08 08:54:07;;;;;;;7.73;2.83;;;18.00;1.00;;;;;;6137032;23;20520;-77
2022/07/08 08:56:38;;;;;;;8.93;3.37;;;18.10;1.00;;;;;;6137693;23;20400;-79
2022/07/08 08:59:05;;;;;;;9.33;3.53;;;18.00;1.00;;;;;;6133962;23;20503;-76
2022/07/08 09:01:39;;;;;;;4.47;3.30;;;18.00;1.00;;;;;;6138594;23;20403;-77
2022/07/08 09:04:10;;;;;;;7.87;3.90;;;18.20;1.00;;;;;;6132796;23;20420;-79
2022/07/08 09:06:38;;;;;;;8.60;2.23;;;18.30;1.00;;;;;;6137581;23;20510;-81
2022/07/08 09:09:05;;;;;;;7.00;3.10;;;18.50;1.00;;;;;;6124222;23;20504;-81
2022/07/08 09:11:36;;;;;;;4.63;2.97;;;18.80;1.00;;;;;;6138222;23;20475;-79
2022/07/08 09:14:18;;;;;;;9.63;2.70;;;18.90;1.00;;;;;;6128762;23;20435;-78
2022/07/08 09:17:09;;;;;;;8.00;4.10;;;19.00;1.00;;;;;;6132724;23;20418;-79
2022/07/08 09:19:36;;;;;;;5.90;2.60;;;19.00;1.00;;;;;;6138646;23;20380;-81
2022/07/08 09:22:04;;;;;;;5.53;2.47;;;19.00;1.00;;;;;;6125496;23;20399;-82
2022/07/08 09:24:35;;;;;;;6.00;2.67;;;18.90;1.00;;;;;;6123904;23;20427;-81
2022/07/08 09:27:06;;;;;;;8.00;2.97;;;18.80;1.00;;;;;;6124903;23;20439;-80
2022/07/08 09:29:39;;;;;;;2.73;2.30;;;18.70;1.00;;;;;;6129412;23;20404;-80
2022/07/08 09:32:16;;;;;;;4.67;2.50;;;18.70;1.00;;;;;;6127439;23;20498;-77
2022/07/08 09:34:43;;;;;;;7.20;3.10;;;18.60;1.00;;;;;;6136941;23;20427;-81
2022/07/08 09:37:16;;;;;;;5.80;2.70;;;18.60;1.00;;;;;;6139852;23;20522;-81
2022/07/08 09:39:44;;;;;;;3.97;2.30;;;18.50;1.00;;;;;;6138715;23;20427;-79
2022/07/08 09:42:17;;;;;;;5.10;2.47;;;18.40;1.00;;;;;;6140419;23;21114;-77
2022/07/08 09:44:52;;;;;;;5.50;2.60;;;18.40;1.00;;;;;;6138245;23;20482;-78
2022/07/08 09:47:20;;;;;;;9.70;3.63;;;18.30;1.00;;;;;;6141455;23;20430;-79
2022/07/08 09:49:48;;;;;;;6.77;2.80;;;18.30;1.00;;;;;;6166649;23;20469;-79
2022/07/08 09:52:21;;;;;;;5.03;3.37;;;18.40;1.00;;;;;;6171423;23;20450;-79
2022/07/08 09:55:00;;;;;;;5.83;3.03;;;18.40;1.00;;;;;;6167648;23;20422;-81
2022/07/08 09:57:29;;;;;;;6.40;3.40;;;18.60;1.00;;;;;;6169127;23;20427;-81
2022/07/08 09:59:57;;;;;;;5.73;2.90;;;18.60;1.00;;;;;;6171697;23;20399;-79
2022/07/08 10:02:28;;;;;;;6.50;2.83;;;18.90;1.00;;;;;;6166762;23;20458;-79
2022/07/08 10:04:57;;;;;;;7.90;2.97;;;19.10;1.00;;;;;;6167334;23;20519;-81
2022/07/08 10:07:24;;;;;;;5.37;2.80;;;19.20;1.00;;;;;;6163264;23;20513;-78
2022/07/08 10:09:55;;;;;;;6.13;2.73;;;19.10;1.00;;;;;;6167220;23;20508;-76
2022/07/08 10:12:23;;;;;;;6.07;2.47;;;19.00;1.00;;;;;;6167735;23;20458;-77
2022/07/08 10:14:57;;;;;;;5.70;2.83;;;18.90;1.00;;;;;;6168272;23;20481;-78
2022/07/08 10:17:28;;;;;;;5.40;2.40;;;18.80;1.00;;;;;;6167898;23;20910;-77
2022/07/08 10:19:59;;;;;;;5.97;3.40;;;18.70;1.00;;;;;;6167192;23;20442;-78
2022/07/08 10:22:27;;;;;;;7.37;2.73;;;18.60;1.00;;;;;;6158721;23;20426;-77
2022/07/08 10:24:55;;;;;;;5.20;2.43;;;18.80;1.00;;;;;;6162407;23;20534;-77
2022/07/08 10:27:24;;;;;;;9.90;4.87;;;19.10;1.00;;;;;;6162782;23;20453;-77
2022/07/08 10:29:53;;;;;;;4.13;2.70;;;19.40;1.00;;;;;;6163181;23;20832;-77
2022/07/08 10:32:28;;;;;;;8.87;3.30;;;20.40;1.00;;;;;;6160937;23;20423;-78
2022/07/08 10:35:10;;;;;;;3.83;2.30;;;21.90;1.00;;;;;;6167507;23;20473;-76
2022/07/08 10:37:48;;;;;;;6.17;2.67;;;23.40;1.00;;;;;;6167057;23;20459;-76
2022/07/08 10:40:48;;;;;;;5.43;2.43;;;24.00;1.00;;;;;;6169348;23;20405;-75
2022/07/08 10:43:27;;;;;;;4.33;2.50;;;24.40;1.00;;;;;;6108343;23;20939;-77
2022/07/08 10:46:16;;;;;;;9.03;2.57;;;24.10;1.00;;;;;;6167161;23;20498;-76
2022/07/08 10:48:58;;;;;;;4.90;2.57;;;23.90;1.00;;;;;;6167942;23;20406;-75
2022/07/08 10:51:48;;;;;;;7.20;2.90;;;23.50;1.00;;;;;;6167727;23;20399;-74
2022/07/08 10:54:35;;;;;;;6.23;2.70;;;24.20;1.00;;;;;;6168398;23;20418;-75
2022/07/08 10:57:07;;;;;;;4.27;2.40;;;24.30;1.00;;;;;;6168387;23;20566;-77
2022/07/08 10:59:37;;;;;;;6.43;2.80;;;25.80;1.00;;;;;;6168077;23;20431;-78
2022/07/08 11:02:15;;;;;;;5.13;2.17;;;27.20;1.00;;;;;;6169427;23;20462;-79
2022/07/08 11:04:53;;;;;;;5.80;2.60;;;27.20;1.00;;;;;;6168961;23;20391;-78
2022/07/08 11:07:38;;;;;;;5.57;2.17;;;27.40;1.00;;;;;;6166684;23;20423;-77
2022/07/08 11:10:09;;;;;;;7.37;2.30;;;29.20;1.00;;;;;;6168823;23;20399;-77
2022/07/08 11:12:40;;;;;;;8.63;2.60;;;29.90;1.00;;;;;;6166894;23;20403;-78
2022/07/08 11:15:14;;;;;;;5.77;1.93;;;28.80;1.00;;;;;;6167925;23;20398;-79
2022/07/08 11:17:48;;;;;;;6.80;2.30;;;27.60;1.00;;;;;;6166082;23;21084;-77
2022/07/08 11:20:19;;;;;;;8.23;2.33;;;27.00;1.00;;;;;;6165497;23;20833;-78
2022/07/08 11:22:49;;;;;;;7.53;3.23;;;26.50;1.00;;;;;;6166020;23;20399;-76
2022/07/08 11:25:17;;;;;;;5.97;2.10;;;25.90;1.00;;;;;;6162705;23;21044;-77
2022/07/08 11:27:53;;;;;;;5.53;2.00;;;25.40;1.00;;;;;;6166494;23;20466;-77
2022/07/08 11:30:20;;;;;;;8.60;2.50;;;24.60;1.00;;;;;;6167451;23;20433;-76
2022/07/08 11:32:49;;;;;;;6.40;2.07;;;24.20;1.00;;;;;;6169443;23;20513;-78
2022/07/08 11:35:22;;;;;;;5.53;1.80;;;24.50;1.00;;;;;;6168223;23;20379;-76
2022/07/08 11:37:50;;;;;;;5.30;2.00;;;25.60;1.00;;;;;;6166785;23;20423;-78
2022/07/08 11:40:20;;;;;;;8.30;2.17;;;26.90;1.00;;;;;;6168889;23;20422;-78
2022/07/08 11:42:46;;;;;;;5.60;2.30;;;27.30;1.00;;;;;;6165775;23;20418;-78
2022/07/08 11:45:17;;;;;;;7.20;1.90;;;27.50;1.00;;;;;;6167636;23;20447;-77
2022/07/08 11:47:44;;;;;;;6.50;1.77;;;27.50;1.00;;;;;;6168212;23;20423;-78
2022/07/08 11:50:15;;;;;;;8.40;2.50;;;27.80;1.00;;;;;;6168037;23;20438;-76
2022/07/08 11:52:44;;;;;;;7.90;2.33;;;29.10;1.00;;;;;;6164745;23;20907;-77
2022/07/08 11:55:15;;;;;;;7.93;2.30;;;29.20;1.00;;;;;;6167963;23;20865;-77
2022/07/08 11:57:43;;;;;;;5.70;1.70;;;28.60;1.00;;;;;;6166538;23;20423;-77
2022/07/08 12:00:15;;;;;;;7.27;1.90;;;27.40;1.00;;;;;;6167844;23;20441;-78
2022/07/08 12:02:43;;;;;;;6.87;2.33;;;26.80;1.00;;;;;;6165784;23;20502;-76
2022/07/08 12:05:21;;;;;;;6.63;2.57;;;27.40;1.00;;;;;;6167630;23;20442;-76
2022/07/08 12:08:00;;;;;;;6.17;1.83;;;26.80;1.00;;;;;;6165446;23;20426;-78
2022/07/08 12:10:27;;;;;;;6.37;2.87;;;26.00;1.00;;;;;;6167150;23;20856;-76
2022/07/08 12:12:58;;;;;;;7.87;2.30;;;25.30;1.00;;;;;;6169454;23;20423;-77
2022/07/08 12:15:38;;;;;;;8.67;3.03;;;24.60;1.00;;;;;;6167521;23;20616;-76
2022/07/08 12:18:07;;;;;;;9.60;1.90;;;24.20;1.00;;;;;;6166665;23;20427;-76
2022/07/08 12:20:37;;;;;;;6.13;1.70;;;23.60;1.00;;;;;;6165385;23;20398;-77
2022/07/08 12:23:06;;;;;;;7.27;2.20;;;23.40;1.00;;;;;;6152518;23;20391;-78
2022/07/08 12:25:57;;;;;;;8.20;2.50;;;23.20;1.00;;;;;;6165084;23;20509;-79
2022/07/08 12:28:25;;;;;;;5.80;2.23;;;22.90;1.00;;;;;;6164513;23;21117;-76
2022/07/08 12:30:57;;;;;;;5.20;2.03;;;22.50;1.00;;;;;;6167272;23;20509;-78
2022/07/08 12:33:27;;;;;;;6.17;1.90;;;22.50;1.00;;;;;;6163684;23;20473;-79
2022/07/08 12:35:57;;;;;;;5.30;2.03;;;22.70;1.00;;;;;;6167879;23;20406;-77
2022/07/08 12:38:26;;;;;;;6.00;2.70;;;22.70;1.00;;;;;;6167504;23;20994;-78
2022/07/08 12:41:04;;;;;;;4.60;1.60;;;22.70;1.00;;;;;;6168660;23;20434;-77
2022/07/08 12:43:36;;;;;;;4.37;1.70;;;22.50;1.00;;;;;;6165748;23;20509;-77
2022/07/08 12:46:05;;;;;;;5.07;1.70;;;22.40;1.00;;;;;;6165514;23;20501;-76
2022/07/08 12:48:36;;;;;;;8.33;2.23;;;22.30;1.00;;;;;;6150532;23;20442;-77
2022/07/08 12:51:03;;;;;;;7.10;2.10;;;22.30;1.00;;;;;;6166731;23;20488;-77
2022/07/08 12:53:37;;;;;;;4.67;2.00;;;22.40;1.00;;;;;;6167433;23;20427;-78
2022/07/08 12:56:04;;;;;;;5.80;2.40;;;22.50;1.00;;;;;;6167502;23;20418;-78
2022/07/08 12:58:39;;;;;;;6.87;2.60;;;22.60;1.00;;;;;;6166006;23;20458;-77
2022/07/08 13:01:06;;;;;;;5.03;1.93;;;22.70;1.00;;;;;;6168620;23;20484;-77
2022/07/08 13:03:34;;;;;;;5.73;2.60;;;22.70;1.00;;;;;;6153550;23;20829;-78
2022/07/08 13:06:06;;;;;;;6.13;1.90;;;22.60;1.00;;;;;;6165413;23;20994;-77
2022/07/08 13:08:38;;;;;;;5.97;2.03;;;22.30;1.00;;;;;;6167240;23;20430;-79
2022/07/08 13:11:05;;;;;;;7.93;2.47;;;21.90;1.00;;;;;;6167579;23;20454;-77
2022/07/08 13:13:32;;;;;;;7.03;2.13;;;21.60;1.00;;;;;;6163252;23;20425;-78
2022/07/08 13:15:59;;;;;;;6.00;2.20;;;21.50;1.00;;;;;;6147582;23;20991;-77